Time;durP1;ratioP1;P1;durP2;ratioP2;P2;SDS_P1;SDS_P2;PMS_P1;PMS_P2;Temp;Humidity;BMP_temperature;BMP_pressure;BME280_temperature;BME280_humidity;BME280_pressure;Samples;Min_cycle;Max_cycle;Signal;HPM_P1;HPM_P2
2022/03/20 00:00:56;;;;;;;21.90;15.05;;;;;;;;;;4957552;28;20057;-63
2022/03/20 00:03:26;;;;;;;18.77;16.38;;;;;;;;;;4955134;29;20130;-64
2022/03/20 00:05:56;;;;;;;20.38;15.60;;;;;;;;;;4956985;28;20098;-64
2022/03/20 00:08:24;;;;;;;19.48;15.70;;;;;;;;;;4956220;28;20085;-66
2022/03/20 00:10:59;;;;;;;25.60;17.20;;;;;;;;;;4956875;28;20051;-64
2022/03/20 00:13:28;;;;;;;21.92;17.38;;;;;;;;;;4956562;28;20066;-64
2022/03/20 00:15:57;;;;;;;20.42;16.20;;;;;;;;;;4956318;28;20077;-64
2022/03/20 00:18:27;;;;;;;22.70;18.73;;;;;;;;;;4957005;28;20498;-64
2022/03/20 00:20:58;;;;;;;27.10;16.98;;;;;;;;;;4956770;28;20048;-64
2022/03/20 00:23:28;;;;;;;21.65;17.00;;;;;;;;;;4957393;28;20058;-64
2022/03/20 00:25:57;;;;;;;21.73;17.15;;;;;;;;;;4956849;29;20052;-64
2022/03/20 00:28:25;;;;;;;20.85;17.30;;;;;;;;;;4955661;29;20081;-64
2022/03/20 00:30:54;;;;;;;19.55;16.98;;;;;;;;;;4956909;28;20098;-64
2022/03/20 00:33:23;;;;;;;24.13;17.08;;;;;;;;;;4956760;28;21201;-64
2022/03/20 00:35:52;;;;;;;19.05;16.23;;;;;;;;;;4957610;28;20070;-64
2022/03/20 00:38:22;;;;;;;23.63;17.95;;;;;;;;;;4955919;29;20050;-64
2022/03/20 00:40:51;;;;;;;20.00;15.82;;;;;;;;;;4957543;28;20406;-64
2022/03/20 00:43:20;;;;;;;23.20;17.23;;;;;;;;;;4956765;28;20527;-64
2022/03/20 00:45:50;;;;;;;21.20;17.17;;;;;;;;;;4956639;28;20129;-63
2022/03/20 00:48:23;;;;;;;20.40;16.30;;;;;;;;;;4956219;28;20138;-63
2022/03/20 00:50:53;;;;;;;29.60;18.45;;;;;;;;;;4956285;28;20447;-63
2022/03/20 00:53:23;;;;;;;20.10;16.08;;;;;;;;;;4956036;29;20052;-63
2022/03/20 00:55:53;;;;;;;23.08;17.58;;;;;;;;;;4956583;29;20047;-63
2022/03/20 00:58:24;;;;;;;21.27;16.67;;;;;;;;;;4956131;29;20043;-63
2022/03/20 01:00:53;;;;;;;22.13;16.45;;;;;;;;;;4956370;29;20070;-63
2022/03/20 01:03:22;;;;;;;21.33;18.02;;;;;;;;;;4956730;29;20075;-64
2022/03/20 01:05:53;;;;;;;19.10;16.73;;;;;;;;;;4956773;29;20073;-63
2022/03/20 01:08:20;;;;;;;20.60;18.00;;;;;;;;;;4956222;29;20067;-63
2022/03/20 01:10:49;;;;;;;19.63;16.60;;;;;;;;;;4956547;29;20138;-63
2022/03/20 01:13:19;;;;;;;23.60;15.35;;;;;;;;;;4956207;28;20051;-63
2022/03/20 01:15:48;;;;;;;18.30;16.45;;;;;;;;;;4956296;29;20051;-64
2022/03/20 01:18:16;;;;;;;22.85;16.98;;;;;;;;;;4956171;29;20047;-63
2022/03/20 01:20:45;;;;;;;18.95;16.75;;;;;;;;;;4936928;28;20111;-65
2022/03/20 01:23:15;;;;;;;21.25;18.05;;;;;;;;;;4939542;29;20044;-64
2022/03/20 01:25:45;;;;;;;23.45;16.55;;;;;;;;;;4955791;28;20047;-64
2022/03/20 01:28:19;;;;;;;24.30;16.85;;;;;;;;;;4956160;28;20055;-65
2022/03/20 01:30:48;;;;;;;21.08;17.20;;;;;;;;;;4955907;29;20051;-64
2022/03/20 01:33:17;;;;;;;21.70;16.95;;;;;;;;;;4956084;29;20102;-65
2022/03/20 01:35:46;;;;;;;20.33;16.35;;;;;;;;;;4956001;29;20459;-64
2022/03/20 01:38:19;;;;;;;24.08;19.70;;;;;;;;;;4954741;29;20106;-64
2022/03/20 01:40:48;;;;;;;26.48;19.05;;;;;;;;;;4955767;29;20085;-65
2022/03/20 01:43:17;;;;;;;21.30;18.15;;;;;;;;;;4955546;28;20058;-64
2022/03/20 01:45:46;;;;;;;23.00;17.48;;;;;;;;;;4955916;29;20470;-65
2022/03/20 01:48:15;;;;;;;19.92;16.77;;;;;;;;;;4955684;29;20130;-64
2022/03/20 01:50:43;;;;;;;22.48;18.25;;;;;;;;;;4955814;28;20065;-64
2022/03/20 01:53:12;;;;;;;23.40;18.10;;;;;;;;;;4955385;28;20510;-65
2022/03/20 01:55:41;;;;;;;22.88;17.60;;;;;;;;;;4955698;28;20055;-64
2022/03/20 01:58:10;;;;;;;28.92;17.67;;;;;;;;;;4955420;28;20463;-65
2022/03/20 02:00:39;;;;;;;23.30;18.95;;;;;;;;;;4955601;28;20055;-64
2022/03/20 02:03:07;;;;;;;25.95;18.08;;;;;;;;;;4954879;28;20395;-64
2022/03/20 02:05:37;;;;;;;20.85;16.85;;;;;;;;;;4936075;29;20487;-64
2022/03/20 02:08:06;;;;;;;24.20;17.77;;;;;;;;;;4943333;29;20047;-64
2022/03/20 02:10:35;;;;;;;26.90;16.88;;;;;;;;;;4955390;29;20055;-64
2022/03/20 02:13:04;;;;;;;21.63;17.23;;;;;;;;;;4955276;29;20051;-64
2022/03/20 02:15:33;;;;;;;25.13;17.80;;;;;;;;;;4955364;28;20049;-64
2022/03/20 02:18:01;;;;;;;21.60;17.45;;;;;;;;;;4954796;28;20396;-64
2022/03/20 02:20:29;;;;;;;21.27;16.52;;;;;;;;;;4969891;28;20051;-64
2022/03/20 02:22:59;;;;;;;22.75;17.42;;;;;;;;;;4955327;28;20051;-64
2022/03/20 02:25:29;;;;;;;30.05;18.67;;;;;;;;;;4955072;28;20055;-64
2022/03/20 02:27:59;;;;;;;22.33;18.27;;;;;;;;;;4953969;29;20569;-64
2022/03/20 02:30:30;;;;;;;23.00;17.40;;;;;;;;;;4955067;28;20055;-64
2022/03/20 02:32:59;;;;;;;22.95;18.27;;;;;;;;;;4955088;28;20079;-64
2022/03/20 02:35:28;;;;;;;26.67;17.88;;;;;;;;;;4955036;28;20047;-64
2022/03/20 02:37:56;;;;;;;22.55;17.35;;;;;;;;;;4954984;28;20055;-65
2022/03/20 02:40:24;;;;;;;26.95;18.20;;;;;;;;;;4954976;28;20107;-65
2022/03/20 02:42:54;;;;;;;21.35;18.27;;;;;;;;;;4953736;29;20058;-65
2022/03/20 02:45:29;;;;;;;22.30;18.58;;;;;;;;;;4955054;28;20063;-65
2022/03/20 02:48:00;;;;;;;29.92;17.95;;;;;;;;;;4954964;28;20499;-65
2022/03/20 02:50:32;;;;;;;23.33;19.25;;;;;;;;;;4955096;28;20059;-64
2022/03/20 02:53:02;;;;;;;23.77;18.42;;;;;;;;;;4954755;28;20055;-64
2022/03/20 02:55:35;;;;;;;21.35;17.17;;;;;;;;;;4954770;28;20057;-64
2022/03/20 02:58:25;;;;;;;20.88;17.83;;;;;;;;;;4954754;28;20055;-64
2022/03/20 03:00:55;;;;;;;19.52;17.10;;;;;;;;;;4954723;29;20514;-64
2022/03/20 03:03:26;;;;;;;21.52;17.83;;;;;;;;;;4954812;28;20051;-65
2022/03/20 03:05:56;;;;;;;21.45;17.83;;;;;;;;;;4954949;28;20047;-64
2022/03/20 03:11:11;;;;;;;22.70;20.23;;;;;;;;;;4954947;28;20055;-64
2022/03/20 03:13:40;;;;;;;30.02;19.08;;;;;;;;;;4955207;28;20126;-65
2022/03/20 03:16:13;;;;;;;29.27;19.38;;;;;;;;;;4958639;28;20051;-64
2022/03/20 03:18:43;;;;;;;25.98;18.55;;;;;;;;;;4956585;29;20055;-64
2022/03/20 03:21:16;;;;;;;25.80;22.73;;;;;;;;;;4958253;28;20059;-64
2022/03/20 03:23:44;;;;;;;23.35;19.13;;;;;;;;;;4958337;28;20059;-64
2022/03/20 03:26:12;;;;;;;24.20;18.33;;;;;;;;;;4958080;29;20110;-63
2022/03/20 03:28:40;;;;;;;23.90;18.95;;;;;;;;;;4957221;29;20414;-64
2022/03/20 03:31:10;;;;;;;26.45;19.45;;;;;;;;;;4958015;28;20062;-64
2022/03/20 03:35:41;;;;;;;24.77;18.17;;;;;;;;;;4958218;28;20430;-64
2022/03/20 03:36:28;;;;;;;24.50;19.90;;;;;;;;;;4957529;29;20077;-64
2022/03/20 03:38:57;;;;;;;24.77;18.45;;;;;;;;;;4957140;29;20067;-64
2022/03/20 03:41:25;;;;;;;25.30;19.52;;;;;;;;;;4957883;28;20062;-64
2022/03/20 03:43:54;;;;;;;24.52;19.73;;;;;;;;;;4957949;28;20043;-64
2022/03/20 03:46:23;;;;;;;24.65;20.15;;;;;;;;;;4957780;29;20464;-64
2022/03/20 03:48:53;;;;;;;24.05;20.25;;;;;;;;;;4957458;29;20051;-65
2022/03/20 03:51:21;;;;;;;27.60;20.95;;;;;;;;;;4957768;29;20392;-65
2022/03/20 03:53:51;;;;;;;30.02;22.60;;;;;;;;;;4957780;28;20439;-64
2022/03/20 03:56:20;;;;;;;23.20;19.80;;;;;;;;;;4957685;28;20395;-64
2022/03/20 03:58:49;;;;;;;29.48;21.73;;;;;;;;;;4956082;29;20594;-64
2022/03/20 04:01:17;;;;;;;25.27;21.40;;;;;;;;;;4957476;28;20179;-64
2022/03/20 04:03:47;;;;;;;29.40;19.83;;;;;;;;;;4957710;28;20106;-64
2022/03/20 04:06:17;;;;;;;26.33;21.40;;;;;;;;;;4957317;28;20057;-64
2022/03/20 04:08:45;;;;;;;24.88;19.50;;;;;;;;;;4957234;28;20047;-64
2022/03/20 04:11:13;;;;;;;26.48;20.05;;;;;;;;;;4957162;28;20055;-64
2022/03/20 04:13:41;;;;;;;27.05;19.98;;;;;;;;;;4957188;28;20533;-64
2022/03/20 04:16:10;;;;;;;21.13;18.52;;;;;;;;;;4956342;29;20387;-64
2022/03/20 04:18:39;;;;;;;25.83;21.92;;;;;;;;;;4948786;29;20448;-64
2022/03/20 04:21:07;;;;;;;28.50;19.60;;;;;;;;;;4957089;28;20491;-64
2022/03/20 04:23:45;;;;;;;26.67;20.05;;;;;;;;;;4956003;29;20533;-64
2022/03/20 04:26:21;;;;;;;27.27;21.77;;;;;;;;;;4955323;28;20452;-64
2022/03/20 04:28:52;;;;;;;26.85;20.95;;;;;;;;;;4955911;29;20055;-64
2022/03/20 04:31:21;;;;;;;25.23;20.52;;;;;;;;;;4957131;28;20063;-64
2022/03/20 04:33:53;;;;;;;24.08;19.73;;;;;;;;;;4956934;28;20047;-64
2022/03/20 04:36:23;;;;;;;27.85;21.25;;;;;;;;;;4954945;28;20067;-64
2022/03/20 04:38:54;;;;;;;26.35;19.73;;;;;;;;;;4956269;28;20055;-64
2022/03/20 04:41:24;;;;;;;25.10;18.27;;;;;;;;;;4955977;28;20139;-64
2022/03/20 04:43:52;;;;;;;23.45;18.90;;;;;;;;;;4956517;28;20051;-64
2022/03/20 04:46:20;;;;;;;25.55;18.48;;;;;;;;;;4955634;29;20051;-63
2022/03/20 04:59:55;;;;;;;24.05;19.70;;;;;;;;;;4956661;28;20477;-64
2022/03/20 05:02:23;;;;;;;24.90;20.65;;;;;;;;;;4956350;28;20138;-62
2022/03/20 05:04:52;;;;;;;27.75;20.02;;;;;;;;;;4955348;29;20122;-61
2022/03/20 05:07:21;;;;;;;22.05;19.67;;;;;;;;;;4956153;29;20562;-62
2022/03/20 05:15:26;;;;;;;27.83;21.92;;;;;;;;;;4956272;29;20065;-62
2022/03/20 05:17:54;;;;;;;25.52;19.63;;;;;;;;;;4955881;28;20617;-63
2022/03/20 05:20:23;;;;;;;24.15;19.85;;;;;;;;;;4956385;29;20557;-62
2022/03/20 05:22:52;;;;;;;25.15;19.95;;;;;;;;;;4956592;28;20117;-62
2022/03/20 05:25:20;;;;;;;24.52;18.98;;;;;;;;;;4955878;28;20384;-62
2022/03/20 05:27:48;;;;;;;24.15;19.90;;;;;;;;;;4954938;29;20053;-64
2022/03/20 05:30:19;;;;;;;26.35;18.95;;;;;;;;;;4955870;28;20522;-62
2022/03/20 05:32:51;;;;;;;24.30;17.88;;;;;;;;;;4955993;28;20099;-62
2022/03/20 05:35:20;;;;;;;30.25;20.63;;;;;;;;;;4955775;28;20043;-62
2022/03/20 05:37:49;;;;;;;24.05;19.58;;;;;;;;;;4955400;28;20058;-62
2022/03/20 05:40:19;;;;;;;25.92;19.48;;;;;;;;;;4955950;28;20078;-63
2022/03/20 05:42:48;;;;;;;24.23;20.23;;;;;;;;;;4955379;28;20530;-62
2022/03/20 05:45:16;;;;;;;22.95;18.85;;;;;;;;;;4955546;28;20051;-63
2022/03/20 05:47:44;;;;;;;31.05;22.90;;;;;;;;;;4955172;28;20055;-63
2022/03/20 05:50:13;;;;;;;27.60;21.35;;;;;;;;;;4955946;28;20138;-63
2022/03/20 05:52:41;;;;;;;27.60;21.58;;;;;;;;;;4954518;29;20053;-63
2022/03/20 05:55:10;;;;;;;27.73;21.85;;;;;;;;;;4955364;28;20576;-63
2022/03/20 05:58:11;;;;;;;27.38;21.30;;;;;;;;;;4955131;28;20499;-63
2022/03/20 06:00:36;;;;;;;30.30;20.88;;;;;;;;;;4955612;28;20048;-63
2022/03/20 06:03:04;;;;;;;30.77;23.17;;;;;;;;;;4954207;28;20057;-63
2022/03/20 06:05:33;;;;;;;24.95;19.77;;;;;;;;;;4955397;28;20047;-63
2022/03/20 06:08:04;;;;;;;28.90;23.17;;;;;;;;;;4955093;28;20055;-63
2022/03/20 06:10:34;;;;;;;23.80;20.52;;;;;;;;;;4955547;28;20074;-63
2022/03/20 06:13:06;;;;;;;26.42;20.98;;;;;;;;;;4954106;28;20110;-63
2022/03/20 06:15:34;;;;;;;29.60;21.83;;;;;;;;;;4953253;29;20050;-63
2022/03/20 06:18:08;;;;;;;25.20;20.15;;;;;;;;;;4953375;29;20063;-63
2022/03/20 06:20:37;;;;;;;25.77;20.05;;;;;;;;;;4951639;29;20055;-63
2022/03/20 06:23:06;;;;;;;29.52;22.60;;;;;;;;;;4954748;29;20105;-63
2022/03/20 06:25:35;;;;;;;30.30;19.85;;;;;;;;;;4955059;28;20051;-63
2022/03/20 06:28:05;;;;;;;33.28;21.48;;;;;;;;;;4954850;29;20502;-63
2022/03/20 06:30:33;;;;;;;25.83;22.65;;;;;;;;;;4954595;29;20047;-63
2022/03/20 06:33:04;;;;;;;29.27;23.67;;;;;;;;;;4954261;29;20050;-63
2022/03/20 06:35:34;;;;;;;26.95;22.40;;;;;;;;;;4954315;28;20059;-62
2022/03/20 06:38:03;;;;;;;27.90;22.33;;;;;;;;;;4954493;29;20047;-63
2022/03/20 06:40:32;;;;;;;27.30;23.05;;;;;;;;;;4954157;28;20499;-63
2022/03/20 06:43:00;;;;;;;28.60;21.75;;;;;;;;;;4954630;28;20047;-67
2022/03/20 06:45:29;;;;;;;25.83;22.00;;;;;;;;;;4954496;29;20146;-66
2022/03/20 06:47:59;;;;;;;26.55;21.75;;;;;;;;;;4952615;28;20055;-64
2022/03/20 06:50:28;;;;;;;27.65;22.13;;;;;;;;;;4958527;28;20514;-63
2022/03/20 06:53:02;;;;;;;28.00;22.25;;;;;;;;;;4958418;28;20106;-64
2022/03/20 06:55:31;;;;;;;29.55;25.13;;;;;;;;;;4957617;28;20047;-67
2022/03/20 06:58:00;;;;;;;27.60;21.73;;;;;;;;;;4958259;28;20055;-64
2022/03/20 07:00:29;;;;;;;27.20;22.73;;;;;;;;;;4957626;28;20051;-64
2022/03/20 07:03:00;;;;;;;28.58;23.23;;;;;;;;;;4956770;29;20090;-64
2022/03/20 07:05:31;;;;;;;25.60;22.80;;;;;;;;;;4956104;29;20055;-62
2022/03/20 07:08:00;;;;;;;29.15;23.27;;;;;;;;;;4957357;28;20530;-62
2022/03/20 07:10:29;;;;;;;28.08;22.63;;;;;;;;;;4957590;28;20051;-62
2022/03/20 07:15:46;;;;;;;28.58;22.90;;;;;;;;;;4955622;29;20047;-64
2022/03/20 07:18:19;;;;;;;28.25;23.13;;;;;;;;;;4958541;28;20047;-66
2022/03/20 07:20:49;;;;;;;28.73;23.60;;;;;;;;;;4958077;28;20058;-65
2022/03/20 07:23:18;;;;;;;28.08;23.98;;;;;;;;;;4957849;29;20071;-65
2022/03/20 07:31:21;;;;;;;32.13;25.20;;;;;;;;;;4955919;28;20047;-65
2022/03/20 07:33:50;;;;;;;36.58;27.50;;;;;;;;;;4955512;28;20503;-65
2022/03/20 07:36:20;;;;;;;38.88;28.38;;;;;;;;;;4955882;29;20086;-66
2022/03/20 07:38:51;;;;;;;36.13;26.42;;;;;;;;;;4956048;29;20067;-66
2022/03/20 07:41:18;;;;;;;33.70;27.92;;;;;;;;;;4955630;29;20110;-69
2022/03/20 07:43:47;;;;;;;33.42;26.13;;;;;;;;;;4949943;29;20057;-69
2022/03/20 07:46:16;;;;;;;30.05;24.45;;;;;;;;;;4955555;28;20055;-68
2022/03/20 07:48:45;;;;;;;30.48;24.40;;;;;;;;;;4955833;28;20059;-67
2022/03/20 07:51:16;;;;;;;31.95;25.17;;;;;;;;;;4955941;28;20094;-69
2022/03/20 07:53:45;;;;;;;40.58;26.30;;;;;;;;;;4956827;28;20495;-68
2022/03/20 07:56:13;;;;;;;31.50;24.80;;;;;;;;;;4956985;29;20491;-66
2022/03/20 07:58:43;;;;;;;38.90;25.52;;;;;;;;;;4885980;28;20055;-67
2022/03/20 08:01:13;;;;;;;34.03;23.02;;;;;;;;;;4943321;29;20062;-67
2022/03/20 08:03:47;;;;;;;30.77;24.13;;;;;;;;;;4956697;28;20054;-68
2022/03/20 08:06:16;;;;;;;31.38;23.85;;;;;;;;;;4957005;28;20094;-68
2022/03/20 08:08:45;;;;;;;29.25;23.25;;;;;;;;;;4956706;29;20098;-67
2022/03/20 08:11:14;;;;;;;25.30;21.83;;;;;;;;;;4956876;28;20055;-64
2022/03/20 08:13:44;;;;;;;27.60;24.63;;;;;;;;;;4954838;28;20055;-63
2022/03/20 08:16:20;;;;;;;26.42;21.58;;;;;;;;;;4952648;29;20761;-63
2022/03/20 08:18:49;;;;;;;31.45;21.52;;;;;;;;;;4950792;29;20495;-63
2022/03/20 08:21:17;;;;;;;27.60;22.38;;;;;;;;;;4955931;29;20053;-63
2022/03/20 08:23:46;;;;;;;25.90;22.20;;;;;;;;;;4955067;29;20109;-63
2022/03/20 08:26:15;;;;;;;29.70;23.23;;;;;;;;;;4955936;28;20595;-64
2022/03/20 08:28:44;;;;;;;26.00;20.90;;;;;;;;;;4956438;29;20134;-64
2022/03/20 08:31:13;;;;;;;28.15;23.25;;;;;;;;;;4936207;29;20070;-64
2022/03/20 08:33:43;;;;;;;26.05;22.17;;;;;;;;;;4956585;28;20392;-64
2022/03/20 08:36:15;;;;;;;31.25;20.70;;;;;;;;;;4954263;29;20055;-64
2022/03/20 08:38:44;;;;;;;24.80;21.42;;;;;;;;;;4956150;28;20103;-64
2022/03/20 08:41:13;;;;;;;25.15;22.55;;;;;;;;;;4956577;28;20047;-64
2022/03/20 08:43:41;;;;;;;24.13;21.60;;;;;;;;;;4955798;28;20102;-64
2022/03/20 08:46:10;;;;;;;24.63;20.65;;;;;;;;;;4955230;29;20051;-62
2022/03/20 08:48:40;;;;;;;24.83;21.85;;;;;;;;;;4955434;28;20487;-62
2022/03/20 08:51:10;;;;;;;26.30;21.25;;;;;;;;;;4956350;29;20098;-62
2022/03/20 08:53:39;;;;;;;23.38;20.77;;;;;;;;;;4956031;29;20059;-62
2022/03/20 08:56:07;;;;;;;26.35;20.83;;;;;;;;;;4954738;29;20058;-65
2022/03/20 08:58:34;;;;;;;26.92;21.23;;;;;;;;;;4956199;28;20051;-64
2022/03/20 09:01:02;;;;;;;23.58;21.00;;;;;;;;;;4955548;29;20153;-65
2022/03/20 09:03:30;;;;;;;23.08;20.63;;;;;;;;;;4955530;29;20075;-65
2022/03/20 09:05:59;;;;;;;25.17;21.65;;;;;;;;;;4956128;28;20059;-64
2022/03/20 09:08:27;;;;;;;30.33;21.08;;;;;;;;;;4954712;29;20051;-68
2022/03/20 09:10:58;;;;;;;24.52;21.58;;;;;;;;;;4954283;28;20542;-64
2022/03/20 09:13:26;;;;;;;25.20;22.63;;;;;;;;;;4955728;28;20507;-64
2022/03/20 09:18:59;;;;;;;23.83;21.17;;;;;;;;;;4954534;29;20066;-63
2022/03/20 09:19:07;;;;;;;23.63;21.27;;;;;;;;;;4956032;28;20106;-64
2022/03/20 09:21:49;;;;;;;22.70;20.30;;;;;;;;;;4949780;29;20530;-65
2022/03/20 09:24:18;;;;;;;24.83;22.42;;;;;;;;;;4954447;29;20047;-63
2022/03/20 09:26:47;;;;;;;23.15;20.77;;;;;;;;;;4955112;28;20073;-64
2022/03/20 09:29:17;;;;;;;22.52;20.15;;;;;;;;;;4955257;28;20411;-67
2022/03/20 09:31:50;;;;;;;25.60;23.00;;;;;;;;;;4954145;28;20402;-64
2022/03/20 09:34:18;;;;;;;26.05;22.42;;;;;;;;;;4956259;28;20051;-63
2022/03/20 09:36:47;;;;;;;25.30;21.40;;;;;;;;;;4953079;28;20110;-67
2022/03/20 09:39:17;;;;;;;22.60;20.15;;;;;;;;;;4955069;28;20048;-64
2022/03/20 09:41:47;;;;;;;26.30;20.75;;;;;;;;;;4955328;28;20062;-64
2022/03/20 09:44:17;;;;;;;21.77;19.65;;;;;;;;;;4955029;28;20047;-64
2022/03/20 09:46:47;;;;;;;23.95;21.27;;;;;;;;;;4955348;28;20055;-65
2022/03/20 09:49:16;;;;;;;24.23;21.67;;;;;;;;;;4955009;28;20074;-66
2022/03/20 09:51:45;;;;;;;22.13;19.92;;;;;;;;;;4955333;28;20043;-64
2022/03/20 09:54:14;;;;;;;22.60;20.30;;;;;;;;;;4955361;29;20146;-64
2022/03/20 09:56:42;;;;;;;26.38;19.95;;;;;;;;;;4953527;29;20073;-67
2022/03/20 09:59:10;;;;;;;21.95;19.83;;;;;;;;;;4951195;29;20102;-65
2022/03/20 10:01:39;;;;;;;21.08;18.95;;;;;;;;;;4953495;28;20562;-66
2022/03/20 10:04:15;;;;;;;22.08;19.58;;;;;;;;;;4953234;28;20486;-66
2022/03/20 10:06:45;;;;;;;20.58;18.48;;;;;;;;;;4951297;29;20054;-65
2022/03/20 10:09:13;;;;;;;21.30;19.00;;;;;;;;;;4953443;28;20130;-65
2022/03/20 10:11:57;;;;;;;21.80;19.50;;;;;;;;;;4951569;29;20055;-65
2022/03/20 10:14:29;;;;;;;21.42;19.15;;;;;;;;;;4952105;29;20494;-66
2022/03/20 10:17:16;;;;;;;22.90;20.60;;;;;;;;;;4953450;28;20047;-66
2022/03/20 10:19:45;;;;;;;20.30;18.15;;;;;;;;;;4953808;28;20075;-66
2022/03/20 10:22:15;;;;;;;22.05;19.75;;;;;;;;;;4952619;28;20051;-64
2022/03/20 10:24:50;;;;;;;22.42;20.10;;;;;;;;;;4953859;29;20118;-65
2022/03/20 10:27:19;;;;;;;24.27;19.83;;;;;;;;;;4953820;29;20046;-66
2022/03/20 10:29:53;;;;;;;36.35;22.13;;;;;;;;;;4953409;28;20047;-66
2022/03/20 10:32:22;;;;;;;21.75;18.80;;;;;;;;;;4953982;28;20128;-66
2022/03/20 10:35:00;;;;;;;23.40;18.92;;;;;;;;;;4952042;29;20503;-66
2022/03/20 10:37:56;;;;;;;22.33;19.92;;;;;;;;;;4951774;29;20043;-64
2022/03/20 10:40:29;;;;;;;21.63;19.45;;;;;;;;;;4952779;29;20060;-64
2022/03/20 10:43:16;;;;;;;30.27;23.20;;;;;;;;;;4952650;28;20138;-67
2022/03/20 10:45:54;;;;;;;25.02;20.90;;;;;;;;;;4953272;28;20114;-66
2022/03/20 10:48:38;;;;;;;24.50;20.98;;;;;;;;;;4953021;28;20631;-67
2022/03/20 10:51:07;;;;;;;28.90;21.75;;;;;;;;;;4952358;28;20054;-66
2022/03/20 10:53:36;;;;;;;24.33;21.90;;;;;;;;;;4952646;28;20542;-67
2022/03/20 10:56:08;;;;;;;24.13;21.73;;;;;;;;;;4951289;29;20122;-67
2022/03/20 10:58:38;;;;;;;25.27;20.75;;;;;;;;;;4951439;29;20057;-67
2022/03/20 11:01:09;;;;;;;24.33;21.88;;;;;;;;;;4952779;28;20055;-66
2022/03/20 11:03:56;;;;;;;22.92;20.75;;;;;;;;;;4951944;29;20063;-68
2022/03/20 11:06:25;;;;;;;24.02;21.65;;;;;;;;;;4950567;28;20066;-65
2022/03/20 11:08:54;;;;;;;24.50;22.15;;;;;;;;;;4953361;28;20062;-65
2022/03/20 11:11:23;;;;;;;25.35;21.77;;;;;;;;;;4952218;29;20503;-65
2022/03/20 11:13:54;;;;;;;23.95;19.33;;;;;;;;;;4953273;28;20534;-68
2022/03/20 11:16:24;;;;;;;20.35;17.77;;;;;;;;;;4953877;28;20079;-65
2022/03/20 11:18:54;;;;;;;17.02;15.20;;;;;;;;;;4953102;29;20058;-65
2022/03/20 11:21:24;;;;;;;24.63;17.52;;;;;;;;;;4952995;29;20043;-65
2022/03/20 11:23:52;;;;;;;19.15;16.67;;;;;;;;;;4953665;28;20069;-65
2022/03/20 11:26:22;;;;;;;22.00;18.10;;;;;;;;;;4952050;29;20110;-65
2022/03/20 11:28:53;;;;;;;17.50;15.80;;;;;;;;;;4953769;29;20134;-64
2022/03/20 11:31:22;;;;;;;20.73;18.45;;;;;;;;;;4946575;29;20419;-64
2022/03/20 11:33:55;;;;;;;20.08;18.13;;;;;;;;;;4954422;28;20052;-67
2022/03/20 11:36:24;;;;;;;20.13;17.63;;;;;;;;;;4956962;28;20121;-66
2022/03/20 11:39:12;;;;;;;21.25;18.08;;;;;;;;;;4957157;28;20081;-66
2022/03/20 11:41:42;;;;;;;24.42;18.13;;;;;;;;;;4957846;28;20054;-69
2022/03/20 11:44:39;;;;;;;20.40;18.40;;;;;;;;;;4957180;28;20058;-69
2022/03/20 11:47:17;;;;;;;19.45;17.58;;;;;;;;;;4955963;29;20047;-70
2022/03/20 11:50:19;;;;;;;21.08;18.98;;;;;;;;;;4957490;28;20058;-67
2022/03/20 11:52:58;;;;;;;25.30;18.77;;;;;;;;;;4957571;28;20043;-67
2022/03/20 11:55:51;;;;;;;20.58;18.15;;;;;;;;;;4957641;28;20047;-67
2022/03/20 11:58:22;;;;;;;19.20;17.02;;;;;;;;;;4952899;29;20474;-67
2022/03/20 12:01:06;;;;;;;19.52;17.45;;;;;;;;;;4956059;29;20142;-67
2022/03/20 12:04:04;;;;;;;22.65;20.35;;;;;;;;;;4956494;28;20051;-68
2022/03/20 12:07:07;;;;;;;21.50;19.25;;;;;;;;;;4954397;28;20047;-70
2022/03/20 12:09:47;;;;;;;18.92;17.15;;;;;;;;;;4956084;28;20082;-68
2022/03/20 12:12:23;;;;;;;20.00;18.02;;;;;;;;;;4946575;29;20051;-68
2022/03/20 12:14:54;;;;;;;20.25;18.38;;;;;;;;;;4954365;29;20066;-68
2022/03/20 12:17:25;;;;;;;20.33;18.20;;;;;;;;;;4954514;29;20126;-69
2022/03/20 12:19:55;;;;;;;20.80;17.08;;;;;;;;;;4954819;29;20055;-66
2022/03/20 12:22:23;;;;;;;21.70;16.50;;;;;;;;;;4954812;29;20053;-66
2022/03/20 12:25:00;;;;;;;18.13;16.35;;;;;;;;;;4955483;28;20047;-66
2022/03/20 12:27:30;;;;;;;20.25;18.10;;;;;;;;;;4955095;28;20074;-66
2022/03/20 12:30:11;;;;;;;21.17;19.08;;;;;;;;;;4953680;28;20442;-66
2022/03/20 12:32:59;;;;;;;19.35;17.45;;;;;;;;;;4954606;28;20062;-66
2022/03/20 12:35:45;;;;;;;19.67;17.77;;;;;;;;;;4956195;28;20073;-64
2022/03/20 12:38:37;;;;;;;20.10;18.08;;;;;;;;;;4954804;29;20074;-65
2022/03/20 12:41:11;;;;;;;29.20;26.08;;;;;;;;;;4956293;28;20055;-65
2022/03/20 12:43:55;;;;;;;19.27;17.40;;;;;;;;;;4956743;28;20050;-64
2022/03/20 12:46:25;;;;;;;20.88;18.38;;;;;;;;;;4955679;28;20054;-65
2022/03/20 12:48:55;;;;;;;20.50;18.50;;;;;;;;;;4955982;28;20039;-64
2022/03/20 12:51:35;;;;;;;19.45;17.52;;;;;;;;;;4956919;28;20051;-64
2022/03/20 12:54:11;;;;;;;25.52;20.23;;;;;;;;;;4956096;28;20633;-65
2022/03/20 12:56:52;;;;;;;20.80;18.73;;;;;;;;;;4956652;28;20047;-66
2022/03/20 12:59:25;;;;;;;21.33;19.05;;;;;;;;;;4955836;28;20051;-65
2022/03/20 13:01:55;;;;;;;24.57;17.93;;;;;;;;;;4956380;28;20239;-65
2022/03/20 13:04:27;;;;;;;19.83;17.83;;;;;;;;;;4956364;28;20085;-66
2022/03/20 13:06:56;;;;;;;19.73;17.73;;;;;;;;;;4956254;28;20036;-65
2022/03/20 13:09:27;;;;;;;24.00;18.30;;;;;;;;;;4956273;28;20039;-65
2022/03/20 13:11:59;;;;;;;19.77;17.83;;;;;;;;;;4956051;28;20051;-65
2022/03/20 13:14:27;;;;;;;21.25;18.98;;;;;;;;;;4956410;28;20051;-65
2022/03/20 13:17:04;;;;;;;20.40;17.95;;;;;;;;;;4956003;28;20497;-65
2022/03/20 13:19:34;;;;;;;19.58;17.60;;;;;;;;;;4954792;29;20048;-66
2022/03/20 13:22:05;;;;;;;21.25;18.70;;;;;;;;;;4955206;28;20047;-65
2022/03/20 13:24:39;;;;;;;18.83;16.97;;;;;;;;;;4954933;28;20102;-65
2022/03/20 13:27:10;;;;;;;19.15;17.17;;;;;;;;;;4954029;29;20128;-65
2022/03/20 13:29:41;;;;;;;20.92;16.67;;;;;;;;;;4953546;28;20561;-66
2022/03/20 13:32:12;;;;;;;19.17;17.30;;;;;;;;;;4953906;29;20491;-66
2022/03/20 13:34:47;;;;;;;18.13;16.23;;;;;;;;;;4953371;29;20146;-65
2022/03/20 13:37:22;;;;;;;16.98;15.20;;;;;;;;;;4952647;29;20055;-66
2022/03/20 13:39:57;;;;;;;17.75;16.05;;;;;;;;;;4954771;28;20135;-64
2022/03/20 13:42:29;;;;;;;17.15;15.50;;;;;;;;;;4952524;29;20569;-65
2022/03/20 13:45:01;;;;;;;20.60;17.40;;;;;;;;;;4953570;29;20071;-65
2022/03/20 13:47:30;;;;;;;17.10;15.10;;;;;;;;;;4954581;28;20043;-67
2022/03/20 13:50:00;;;;;;;18.30;16.35;;;;;;;;;;4954316;28;20054;-64
2022/03/20 13:52:32;;;;;;;18.75;16.27;;;;;;;;;;4954652;28;20047;-65
2022/03/20 13:55:21;;;;;;;17.50;15.70;;;;;;;;;;4954480;28;20050;-67
2022/03/20 13:58:04;;;;;;;17.20;14.93;;;;;;;;;;4951817;28;20043;-66
2022/03/20 14:00:41;;;;;;;15.98;14.38;;;;;;;;;;4949254;29;20113;-65
2022/03/20 14:03:16;;;;;;;16.42;14.80;;;;;;;;;;4952685;28;20078;-65
2022/03/20 14:05:51;;;;;;;17.58;15.73;;;;;;;;;;4954485;28;20051;-64
2022/03/20 14:08:21;;;;;;;16.75;15.07;;;;;;;;;;4947817;28;20571;-65
2022/03/20 14:10:51;;;;;;;18.13;15.00;;;;;;;;;;4954784;28;20058;-64
2022/03/20 14:13:27;;;;;;;16.33;14.63;;;;;;;;;;4954629;28;20494;-64
2022/03/20 14:15:57;;;;;;;24.60;14.27;;;;;;;;;;4954732;29;20133;-65
2022/03/20 14:18:26;;;;;;;19.55;14.60;;;;;;;;;;4954311;28;20415;-64
2022/03/20 14:21:11;;;;;;;16.60;14.43;;;;;;;;;;4953316;28;20485;-64
2022/03/20 14:24:03;;;;;;;15.30;13.70;;;;;;;;;;4955088;29;20074;-64
2022/03/20 14:26:34;;;;;;;14.85;13.07;;;;;;;;;;4953090;29;20077;-64
2022/03/20 14:41:22;;;;;;;14.93;13.43;;;;;;;;;;4952638;29;20511;-65
2022/03/20 14:44:16;;;;;;;14.80;13.30;;;;;;;;;;4953543;28;20059;-65
2022/03/20 14:47:06;;;;;;;14.60;12.05;;;;;;;;;;4952414;29;20090;-65
2022/03/20 14:49:34;;;;;;;18.15;15.88;;;;;;;;;;4952094;29;20044;-65
2022/03/20 14:52:05;;;;;;;18.45;15.52;;;;;;;;;;4951338;29;20551;-65
2022/03/20 14:54:33;;;;;;;16.17;14.50;;;;;;;;;;4951565;29;20047;-65
2022/03/20 14:57:02;;;;;;;18.05;14.77;;;;;;;;;;4951786;29;20055;-65
2022/03/20 14:59:30;;;;;;;16.20;13.52;;;;;;;;;;4954396;28;20051;-65
2022/03/20 15:02:00;;;;;;;14.43;12.93;;;;;;;;;;4953298;28;20055;-64
2022/03/20 15:04:29;;;;;;;13.55;12.15;;;;;;;;;;4954158;28;20399;-65
2022/03/20 15:06:58;;;;;;;14.20;12.80;;;;;;;;;;4953751;28;20051;-64
2022/03/20 15:12:13;;;;;;;13.38;11.98;;;;;;;;;;4953459;29;20502;-64
2022/03/20 15:14:42;;;;;;;15.18;12.05;;;;;;;;;;4958235;28;20047;-64
2022/03/20 15:17:11;;;;;;;16.80;12.23;;;;;;;;;;4957041;28;20053;-64
2022/03/20 15:19:41;;;;;;;14.25;12.75;;;;;;;;;;4957033;28;20511;-64
2022/03/20 15:22:10;;;;;;;17.10;12.70;;;;;;;;;;4957506;28;20055;-64
2022/03/20 15:24:40;;;;;;;17.15;12.13;;;;;;;;;;4957177;28;20380;-64